Time;durP1;ratioP1;P1;durP2;ratioP2;P2;SDS_P1;SDS_P2;PMS_P1;PMS_P2;Temp;Humidity;BMP_temperature;BMP_pressure;BME280_temperature;BME280_humidity;BME280_pressure;Samples;Min_cycle;Max_cycle;Signal;HPM_P1;HPM_P2
2021/12/09 00:01:00;;;;;;;1.20;1.10;;;;;;;1.65;100.00;94873.31;5008336;28;20217;-85
2021/12/09 00:03:28;;;;;;;1.20;1.10;;;;;;;1.60;100.00;94867.03;5022060;28;20306;-85
2021/12/09 00:05:57;;;;;;;1.50;1.40;;;;;;;1.53;100.00;94867.84;5007058;28;20230;-85
2021/12/09 00:08:29;;;;;;;1.40;1.30;;;;;;;1.55;100.00;94872.94;5007668;28;20217;-84
2021/12/09 00:10:58;;;;;;;1.47;1.37;;;;;;;1.57;100.00;94878.88;5005731;28;20211;-85
2021/12/09 00:13:27;;;;;;;1.20;1.10;;;;;;;1.51;100.00;94869.91;5007845;28;20221;-85
2021/12/09 00:15:55;;;;;;;1.13;1.03;;;;;;;1.50;100.00;94876.25;5004365;28;20226;-84
2021/12/09 00:18:22;;;;;;;1.80;1.30;;;;;;;1.55;100.00;94875.63;4997293;28;20236;-85
2021/12/09 00:20:49;;;;;;;2.33;1.33;;;;;;;1.45;100.00;94862.75;5007821;28;20199;-84
2021/12/09 00:23:16;;;;;;;1.40;1.30;;;;;;;1.53;100.00;94873.16;5008705;28;20236;-85
2021/12/09 00:25:45;;;;;;;1.37;1.27;;;;;;;1.50;100.00;94870.13;5000223;28;20232;-85
2021/12/09 00:28:12;;;;;;;1.60;1.50;;;;;;;1.55;100.00;94866.81;5026145;28;20229;-85
2021/12/09 00:30:39;;;;;;;1.63;1.27;;;;;;;1.51;100.00;94875.25;5006614;28;20194;-84
2021/12/09 00:33:08;;;;;;;3.97;1.70;;;;;;;1.53;100.00;94873.16;5017533;28;20210;-84
2021/12/09 00:35:44;;;;;;;1.50;1.40;;;;;;;1.51;100.00;94869.91;5021719;28;20211;-84
2021/12/09 00:38:19;;;;;;;1.80;1.30;;;;;;;1.54;100.00;94868.66;5007073;28;20210;-84
2021/12/09 00:40:48;;;;;;;1.40;1.30;;;;;;;1.55;100.00;94872.13;5008368;28;20218;-84
2021/12/09 00:43:17;;;;;;;1.50;1.40;;;;;;;1.53;100.00;94861.72;5006545;28;20202;-84
2021/12/09 00:45:45;;;;;;;1.27;1.17;;;;;;;1.53;100.00;94870.50;4994504;28;20280;-84
2021/12/09 00:48:13;;;;;;;3.17;1.13;;;;;;;1.58;100.00;94875.22;4994567;28;20294;-85
2021/12/09 00:50:40;;;;;;;2.17;1.23;;;;;;;1.56;100.00;94866.63;5020144;28;20204;-85
2021/12/09 00:53:07;;;;;;;2.30;1.30;;;;;;;1.61;100.00;94873.97;5006733;28;20236;-84
2021/12/09 00:55:34;;;;;;;1.10;1.00;;;;;;;1.64;100.00;94870.88;5025676;28;20220;-84
2021/12/09 00:58:03;;;;;;;2.17;1.20;;;;;;;1.68;100.00;94882.75;5016064;28;20294;-84
2021/12/09 01:00:31;;;;;;;2.03;1.27;;;;;;;1.68;100.00;94886.22;5020733;28;20214;-84
2021/12/09 01:03:00;;;;;;;1.30;1.20;;;;;;;1.68;100.00;94885.41;4996548;28;20206;-85
2021/12/09 01:05:29;;;;;;;1.60;1.30;;;;;;;1.65;100.00;94877.84;5001571;28;20225;-84
2021/12/09 01:07:57;;;;;;;1.43;1.30;;;;;;;1.71;100.00;94890.28;5004740;28;20199;-84
2021/12/09 01:10:25;;;;;;;1.70;0.97;;;;;;;1.77;100.00;94884.97;5020374;28;20309;-85
2021/12/09 01:12:53;;;;;;;1.10;1.00;;;;;;;1.72;100.00;94891.91;5007323;28;20234;-85
2021/12/09 01:15:22;;;;;;;1.37;1.27;;;;;;;1.78;100.00;94896.41;5022900;28;20203;-85
2021/12/09 01:17:50;;;;;;;0.97;0.97;;;;;;;1.83;100.00;94904.56;5007202;28;20210;-84
2021/12/09 01:20:20;;;;;;;1.10;1.00;;;;;;;1.83;100.00;94907.22;5003354;28;20199;-84
2021/12/09 01:22:47;;;;;;;1.00;0.90;;;;;;;1.75;100.00;94892.31;5004517;28;20214;-85
2021/12/09 01:25:18;;;;;;;2.17;1.20;;;;;;;1.83;100.00;94915.22;5023117;28;20253;-84
2021/12/09 01:27:47;;;;;;;1.90;0.90;;;;;;;1.80;100.00;94919.09;5004857;28;20206;-84
2021/12/09 01:30:18;;;;;;;0.90;0.90;;;;;;;1.80;100.00;94918.28;5004841;28;20209;-85
2021/12/09 01:32:53;;;;;;;0.97;0.90;;;;;;;1.80;100.00;94923.59;4999778;28;20211;-84
2021/12/09 01:35:22;;;;;;;1.73;0.97;;;;;;;1.78;100.00;94921.19;4999337;28;20207;-85
2021/12/09 01:37:54;;;;;;;1.07;0.97;;;;;;;1.88;100.00;94929.50;5021154;28;20215;-84
2021/12/09 01:40:22;;;;;;;0.93;0.90;;;;;;;1.88;100.00;94939.34;5014378;28;20205;-84
2021/12/09 01:42:49;;;;;;;1.00;0.90;;;;;;;1.87;100.00;94930.53;5018423;28;20307;-84
2021/12/09 01:45:17;;;;;;;0.90;0.90;;;;;;;1.89;100.00;94931.16;5006563;28;20295;-84
2021/12/09 01:47:44;;;;;;;1.23;1.13;;;;;;;1.93;100.00;94933.41;5009267;28;20198;-84
2021/12/09 01:50:13;;;;;;;0.90;0.90;;;;;;;1.93;100.00;94936.88;5017607;28;20223;-84
2021/12/09 01:52:40;;;;;;;1.00;0.90;;;;;;;1.90;100.00;94939.97;5018188;28;20194;-84
2021/12/09 01:55:09;;;;;;;0.90;0.90;;;;;;;1.94;100.00;94941.19;5005027;28;20225;-85
2021/12/09 01:57:37;;;;;;;1.07;0.97;;;;;;;2.01;100.00;94949.94;5007173;28;20254;-85
2021/12/09 02:00:07;;;;;;;1.13;1.03;;;;;;;1.99;100.00;94946.69;5008109;28;20213;-85
2021/12/09 02:02:34;;;;;;;1.23;1.00;;;;;;;2.03;100.00;94955.88;5000204;28;20252;-85
2021/12/09 02:05:01;;;;;;;1.10;1.00;;;;;;;2.03;100.00;94958.56;4996671;28;20204;-84
2021/12/09 02:07:30;;;;;;;1.10;1.00;;;;;;;2.08;100.00;94958.72;5013129;28;20203;-85
2021/12/09 02:09:57;;;;;;;2.00;1.10;;;;;;;2.02;100.00;94954.25;5018413;28;20211;-85
2021/12/09 02:12:25;;;;;;;1.60;1.00;;;;;;;1.97;100.00;94954.06;5000816;28;20214;-85
2021/12/09 02:14:54;;;;;;;2.07;0.93;;;;;;;1.97;100.00;94959.38;5012094;28;20199;-85
2021/12/09 02:17:21;;;;;;;0.80;0.80;;;;;;;1.94;100.00;94962.47;5025024;28;20286;-84
2021/12/09 02:19:48;;;;;;;0.70;0.70;;;;;;;1.90;100.00;94969.22;5000703;28;20286;-85
2021/12/09 02:22:17;;;;;;;1.03;0.73;;;;;;;1.77;100.00;94963.97;5004808;28;20191;-84
2021/12/09 02:24:44;;;;;;;1.70;0.90;;;;;;;1.70;100.00;94955.19;5019649;28;20211;-84
2021/12/09 02:27:11;;;;;;;0.80;0.80;;;;;;;1.69;100.00;94969.53;5007426;28;20234;-84
2021/12/09 02:29:39;;;;;;;0.70;0.70;;;;;;;1.61;100.00;94964.44;5006769;28;20294;-84
2021/12/09 02:32:07;;;;;;;0.80;0.80;;;;;;;1.60;100.00;94973.44;5007345;28;20210;-84
2021/12/09 02:34:34;;;;;;;2.37;0.70;;;;;;;1.56;100.00;94966.88;5006863;28;20200;-84
2021/12/09 02:37:03;;;;;;;0.60;0.60;;;;;;;1.49;100.00;94973.03;5020650;28;20203;-84
2021/12/09 02:39:32;;;;;;;1.00;0.80;;;;;;;1.45;100.00;94968.31;5005814;28;20218;-84
2021/12/09 02:41:59;;;;;;;0.60;0.60;;;;;;;1.44;100.00;94980.84;5021449;28;20212;-84
2021/12/09 02:44:27;;;;;;;0.60;0.60;;;;;;;1.40;100.00;94976.94;5000666;28;20323;-84
2021/12/09 02:46:56;;;;;;;0.60;0.60;;;;;;;1.36;100.00;94975.69;5018604;28;20338;-83
2021/12/09 02:49:27;;;;;;;0.70;0.70;;;;;;;1.31;100.00;94972.84;5006525;28;20207;-84
2021/12/09 02:51:57;;;;;;;0.70;0.70;;;;;;;1.33;100.00;94983.28;5007977;28;20227;-84
2021/12/09 02:54:26;;;;;;;0.70;0.70;;;;;;;1.31;100.00;94985.34;5008097;28;20265;-84
2021/12/09 02:56:58;;;;;;;0.70;0.70;;;;;;;1.26;100.00;94982.47;5011582;28;20235;-84
2021/12/09 02:59:26;;;;;;;2.10;0.93;;;;;;;1.29;100.00;94992.69;5008662;28;20269;-84
2021/12/09 03:01:57;;;;;;;1.07;0.90;;;;;;;1.28;100.00;94981.22;5007421;28;20205;-84
2021/12/09 03:04:28;;;;;;;0.70;0.70;;;;;;;1.30;100.00;94979.19;5004130;28;20294;-84
2021/12/09 03:06:55;;;;;;;1.37;0.70;;;;;;;1.28;100.00;94972.44;5024772;28;20253;-84
2021/12/09 03:09:23;;;;;;;0.70;0.70;;;;;;;1.29;100.00;94985.53;4995518;28;20196;-82
2021/12/09 03:11:55;;;;;;;0.80;0.80;;;;;;;1.35;100.00;94992.72;5011502;28;20235;-84
2021/12/09 03:14:25;;;;;;;0.70;0.70;;;;;;;1.37;100.00;94993.28;5003789;28;20212;-85
2021/12/09 03:16:53;;;;;;;0.73;0.73;;;;;;;1.40;100.00;95000.06;5012677;28;20299;-85
2021/12/09 03:19:20;;;;;;;1.67;0.83;;;;;;;1.42;100.00;95001.50;5004972;28;20203;-85
2021/12/09 03:21:48;;;;;;;0.83;0.70;;;;;;;1.43;100.00;95007.63;4999038;28;20202;-84
2021/12/09 03:24:18;;;;;;;1.40;0.90;;;;;;;1.44;100.00;95001.28;5016966;28;20218;-84
2021/12/09 03:26:48;;;;;;;0.80;0.80;;;;;;;1.43;100.00;95003.13;5027923;28;20220;-84
2021/12/09 03:29:18;;;;;;;1.00;0.90;;;;;;;1.49;100.00;94994.31;5020766;28;20294;-85
2021/12/09 03:31:48;;;;;;;0.70;0.70;;;;;;;1.50;100.00;95011.91;5002871;28;20215;-84
2021/12/09 03:34:18;;;;;;;0.70;0.70;;;;;;;1.55;100.00;95007.78;5008692;28;20303;-85
2021/12/09 03:36:46;;;;;;;0.67;0.67;;;;;;;1.55;100.00;95019.25;5004331;28;20278;-84
2021/12/09 03:39:18;;;;;;;0.60;0.60;;;;;;;1.51;100.00;95010.88;5015573;28;20229;-84
2021/12/09 03:41:48;;;;;;;0.60;0.60;;;;;;;1.52;100.00;95020.50;4997713;28;20210;-85
2021/12/09 03:44:16;;;;;;;0.60;0.60;;;;;;;1.53;100.00;95024.00;5007261;28;20317;-85
2021/12/09 03:46:44;;;;;;;0.63;0.63;;;;;;;1.53;100.00;95024.78;5004723;28;20231;-85
2021/12/09 03:49:12;;;;;;;4.10;0.80;;;;;;;1.51;100.00;95032.16;5010468;28;20264;-85
2021/12/09 03:51:40;;;;;;;0.60;0.60;;;;;;;1.53;100.00;95031.97;5007070;28;20280;-84
2021/12/09 03:54:09;;;;;;;0.70;0.70;;;;;;;1.54;100.00;95028.25;5001154;28;20215;-85
2021/12/09 03:56:37;;;;;;;2.43;1.73;;;;;;;1.55;100.00;95045.03;5023636;28;20234;-84
2021/12/09 03:59:06;;;;;;;0.80;0.80;;;;;;;1.48;100.00;95037.88;4999584;28;20289;-84
2021/12/09 04:01:35;;;;;;;0.73;0.60;;;;;;;1.48;100.00;95043.22;5000857;28;20229;-84
2021/12/09 04:04:02;;;;;;;0.70;0.70;;;;;;;1.48;100.00;95029.91;5009920;28;20206;-84
2021/12/09 04:06:31;;;;;;;0.87;0.77;;;;;;;1.46;100.00;95047.91;5023403;28;20212;-84
2021/12/09 04:08:59;;;;;;;1.83;1.17;;;;;;;1.53;100.00;95050.59;5003840;28;20279;-84
2021/12/09 04:11:26;;;;;;;0.50;0.50;;;;;;;1.56;100.00;95044.00;4998166;28;20224;-84
2021/12/09 04:13:54;;;;;;;0.60;0.60;;;;;;;1.56;100.00;95041.34;5006741;28;20211;-84
2021/12/09 04:16:21;;;;;;;1.27;0.60;;;;;;;1.57;100.00;95043.81;5010885;28;20233;-84
2021/12/09 04:18:49;;;;;;;1.40;1.30;;;;;;;1.68;100.00;95050.38;4997404;28;20210;-85
2021/12/09 04:21:16;;;;;;;0.93;0.93;;;;;;;1.68;100.00;95061.81;5008285;28;20210;-84
2021/12/09 04:23:45;;;;;;;1.60;0.83;;;;;;;1.71;100.00;95068.56;5009640;28;20217;-84
2021/12/09 04:26:12;;;;;;;1.07;0.77;;;;;;;1.72;100.00;95072.84;5025894;28;20226;-84
2021/12/09 04:28:40;;;;;;;0.70;0.70;;;;;;;1.73;100.00;95072.66;5024447;28;20276;-84
2021/12/09 04:31:07;;;;;;;1.90;0.70;;;;;;;1.74;100.00;95041.53;5008139;28;20209;-85
2021/12/09 04:33:34;;;;;;;0.60;0.60;;;;;;;1.84;100.00;95071.22;5006066;28;20215;-85
2021/12/09 04:36:01;;;;;;;2.57;1.67;;;;;;;1.81;100.00;95068.94;5007667;28;20214;-84
2021/12/09 04:38:29;;;;;;;0.70;0.70;;;;;;;1.97;100.00;95073.00;5002366;28;20207;-85
2021/12/09 04:40:57;;;;;;;0.70;0.67;;;;;;;2.00;100.00;95083.25;5009614;28;20269;-84
2021/12/09 04:43:25;;;;;;;1.30;0.90;;;;;;;1.93;100.00;95087.78;5003289;28;20214;-84
2021/12/09 04:45:52;;;;;;;0.70;0.70;;;;;;;1.91;100.00;95098.63;5002420;28;20290;-84
2021/12/09 04:48:19;;;;;;;1.43;0.80;;;;;;;1.89;100.00;95101.50;5003864;28;20205;-84
2021/12/09 04:50:46;;;;;;;0.77;0.77;;;;;;;1.88;100.00;95093.72;4999095;28;20209;-84
2021/12/09 04:53:13;;;;;;;0.80;0.80;;;;;;;1.89;100.00;95098.00;4999285;28;20245;-84
2021/12/09 04:55:41;;;;;;;1.67;0.70;;;;;;;1.89;100.00;95095.34;5002276;28;20246;-84
2021/12/09 04:58:09;;;;;;;0.90;0.70;;;;;;;1.88;100.00;95091.88;5009291;28;20240;-84
2021/12/09 05:00:38;;;;;;;2.00;1.00;;;;;;;1.94;100.00;95106.22;5001742;28;20207;-84
2021/12/09 05:03:09;;;;;;;1.33;0.80;;;;;;;1.99;100.00;95098.41;5008837;28;20246;-84
2021/12/09 05:05:39;;;;;;;0.70;0.70;;;;;;;2.00;100.00;95104.56;5002693;28;20297;-84
2021/12/09 05:08:08;;;;;;;1.27;0.87;;;;;;;2.02;100.00;95106.00;5006084;28;20245;-84
2021/12/09 05:10:50;;;;;;;2.13;0.80;;;;;;;2.07;100.00;95106.19;5000898;28;20305;-84
2021/12/09 05:13:19;;;;;;;2.33;0.70;;;;;;;2.12;100.00;95114.38;4999748;28;20265;-84
2021/12/09 05:15:47;;;;;;;1.13;0.93;;;;;;;2.12;100.00;95114.38;5021174;28;20222;-84
2021/12/09 05:18:15;;;;;;;0.70;0.70;;;;;;;2.15;100.00;95124.59;5001883;28;20203;-84
2021/12/09 05:20:43;;;;;;;2.97;1.47;;;;;;;2.16;100.00;95128.91;5005059;28;20207;-84
2021/12/09 05:23:10;;;;;;;1.93;0.90;;;;;;;2.18;100.00;95132.19;5001836;28;20459;-84
2021/12/09 05:25:37;;;;;;;1.37;1.10;;;;;;;2.28;100.00;95129.09;5008431;28;20273;-85
2021/12/09 05:28:05;;;;;;;1.40;0.80;;;;;;;2.18;100.00;95136.69;4998770;28;20218;-84
2021/12/09 05:32:07;;;;;;;2.10;0.70;;;;;;;2.27;100.00;95138.91;5000831;28;20306;-83
2021/12/09 05:33:25;;;;;;;2.07;0.90;;;;;;;2.50;100.00;95151.75;4999195;28;20226;-84
2021/12/09 05:35:52;;;;;;;5.03;0.80;;;;;;;2.53;100.00;95148.69;5010596;28;20219;-84
2021/12/09 05:38:19;;;;;;;1.87;0.67;;;;;;;2.55;100.00;95143.16;5003762;28;20207;-85
2021/12/09 05:40:47;;;;;;;1.33;0.90;;;;;;;2.51;100.00;95147.25;4999023;28;20308;-84
2021/12/09 05:43:14;;;;;;;2.50;0.83;;;;;;;2.51;100.00;95158.72;5003743;28;20211;-84
2021/12/09 05:45:44;;;;;;;0.83;0.83;;;;;;;2.47;100.00;95159.34;5017466;28;20476;-85
2021/12/09 05:48:11;;;;;;;0.87;0.80;;;;;;;2.45;100.00;95164.91;5017083;28;20306;-84
2021/12/09 05:50:39;;;;;;;0.80;0.80;;;;;;;2.35;100.00;95155.69;5010482;28;20245;-84
2021/12/09 05:53:06;;;;;;;2.70;1.20;;;;;;;2.33;100.00;95165.72;5005029;28;20203;-84
2021/12/09 05:55:34;;;;;;;1.83;0.90;;;;;;;2.27;100.00;95173.53;5011050;28;20199;-85
2021/12/09 05:58:01;;;;;;;1.47;0.87;;;;;;;2.22;100.00;95181.31;5007316;28;20245;-84
2021/12/09 06:00:28;;;;;;;1.83;0.90;;;;;;;2.14;100.00;95180.72;5007936;28;20311;-84
2021/12/09 06:02:57;;;;;;;1.43;0.90;;;;;;;2.04;100.00;95178.47;5008931;28;20237;-84
2021/12/09 06:05:24;;;;;;;0.70;0.70;;;;;;;2.02;100.00;95187.69;5001370;28;20214;-85
2021/12/09 06:07:51;;;;;;;0.67;0.60;;;;;;;2.01;100.00;95197.53;5024413;28;20233;-85
2021/12/09 06:10:18;;;;;;;2.20;0.80;;;;;;;2.07;100.00;95182.56;4995090;28;20285;-84
2021/12/09 06:12:46;;;;;;;0.73;0.70;;;;;;;2.03;100.00;95200.81;5012228;28;20319;-83
2021/12/09 06:15:13;;;;;;;0.83;0.70;;;;;;;2.06;100.00;95200.38;5003777;28;20400;-84
2021/12/09 06:17:40;;;;;;;2.37;0.90;;;;;;;1.94;100.00;95186.06;5017131;28;20225;-84
2021/12/09 06:20:09;;;;;;;2.27;0.80;;;;;;;1.98;100.00;95200.59;5003103;28;20198;-85
2021/12/09 06:22:37;;;;;;;1.47;0.70;;;;;;;1.92;100.00;95196.09;5019487;28;20217;-85
2021/12/09 06:25:05;;;;;;;0.70;0.70;;;;;;;1.90;100.00;95209.59;5023369;28;20204;-84
2021/12/09 06:27:32;;;;;;;1.00;0.90;;;;;;;1.86;100.00;95200.41;5003697;28;20225;-84
2021/12/09 06:29:59;;;;;;;1.10;1.00;;;;;;;1.91;100.00;95215.75;5010120;28;20281;-84
2021/12/09 06:32:27;;;;;;;1.93;0.83;;;;;;;1.99;100.00;95209.41;5007915;28;20221;-84
2021/12/09 06:34:54;;;;;;;2.90;1.70;;;;;;;1.98;100.00;95207.75;5008998;28;20205;-84
2021/12/09 06:37:23;;;;;;;1.40;1.00;;;;;;;1.99;100.00;95199.56;5007697;28;20202;-85
2021/12/09 06:39:50;;;;;;;1.53;0.90;;;;;;;2.05;100.00;95216.56;5014583;28;20210;-85
2021/12/09 06:42:17;;;;;;;1.00;0.90;;;;;;;2.00;100.00;95219.84;5005488;28;20206;-85
2021/12/09 06:44:45;;;;;;;1.53;0.83;;;;;;;2.00;100.00;95211.84;5008556;28;20222;-83
2021/12/09 06:47:12;;;;;;;1.10;1.00;;;;;;;1.98;100.00;95219.22;5009187;28;20306;-84
2021/12/09 06:49:39;;;;;;;0.87;0.87;;;;;;;2.02;100.00;95223.13;5013117;28;20224;-85
2021/12/09 06:52:07;;;;;;;1.67;0.70;;;;;;;2.07;100.00;95230.50;5021045;28;20217;-83
2021/12/09 06:54:36;;;;;;;3.63;0.90;;;;;;;2.06;100.00;95229.66;5008198;28;20204;-84
2021/12/09 06:57:03;;;;;;;2.00;0.97;;;;;;;2.05;100.00;95221.88;5008547;28;20233;-86
2021/12/09 06:59:30;;;;;;;1.00;0.90;;;;;;;2.13;100.00;95227.00;5006363;28;20361;-84
2021/12/09 07:01:57;;;;;;;1.67;0.90;;;;;;;2.10;100.00;95246.88;5009208;28;20226;-85
2021/12/09 07:04:24;;;;;;;0.83;0.80;;;;;;;2.07;100.00;95246.47;5010700;28;20297;-85
2021/12/09 07:06:51;;;;;;;1.10;0.70;;;;;;;2.02;100.00;95249.75;5023884;28;20223;-85
2021/12/09 07:09:19;;;;;;;1.00;0.90;;;;;;;2.03;100.00;95255.91;5014617;28;20235;-86
2021/12/09 07:11:51;;;;;;;2.03;1.03;;;;;;;1.99;100.00;95255.47;5030019;28;20202;-84
2021/12/09 07:14:19;;;;;;;0.90;0.77;;;;;;;1.99;100.00;95255.47;5025144;28;20199;-85
2021/12/09 07:16:46;;;;;;;0.87;0.70;;;;;;;1.96;100.00;95252.41;5007152;28;20207;-85
2021/12/09 07:19:13;;;;;;;0.83;0.80;;;;;;;1.97;100.00;95265.50;5027087;28;20248;-85
2021/12/09 07:21:41;;;;;;;1.37;1.00;;;;;;;1.98;100.00;95264.47;5027766;28;20229;-84
2021/12/09 07:24:08;;;;;;;0.80;0.80;;;;;;;2.06;100.00;95271.44;5005323;28;20204;-87
2021/12/09 07:26:35;;;;;;;1.97;1.20;;;;;;;2.07;100.00;95263.25;5008459;28;20209;-85
2021/12/09 07:29:04;;;;;;;1.33;1.10;;;;;;;2.05;100.00;95270.63;5026016;28;20271;-86
2021/12/09 07:31:35;;;;;;;1.50;0.87;;;;;;;2.06;100.00;95285.56;5010697;28;20198;-87
2021/12/09 07:34:02;;;;;;;2.03;0.90;;;;;;;2.02;100.00;95286.19;5004236;28;20258;-87
2021/12/09 07:36:30;;;;;;;1.13;0.70;;;;;;;2.04;100.00;95286.81;5003909;28;20207;-84
2021/12/09 07:38:57;;;;;;;2.30;1.13;;;;;;;2.16;100.00;95287.84;5008834;28;20301;-85
2021/12/09 07:41:24;;;;;;;2.10;0.90;;;;;;;2.09;100.00;95290.50;5014513;28;20236;-85
2021/12/09 07:43:51;;;;;;;1.50;0.80;;;;;;;2.05;100.00;95291.91;4997546;28;20207;-85
2021/12/09 07:46:20;;;;;;;2.77;1.00;;;;;;;2.06;100.00;95301.56;5019417;28;20206;-86
2021/12/09 07:48:51;;;;;;;0.80;0.80;;;;;;;2.08;100.00;95304.84;5004993;28;20219;-87
2021/12/09 07:51:18;;;;;;;3.23;1.00;;;;;;;2.11;100.00;95316.94;5005065;28;20226;-86
2021/12/09 07:53:46;;;;;;;3.53;1.10;;;;;;;2.06;100.00;95301.56;5023450;28;20214;-87
2021/12/09 07:56:13;;;;;;;1.40;1.00;;;;;;;2.12;100.00;95318.59;5008334;28;20211;-83
2021/12/09 07:58:40;;;;;;;2.10;0.90;;;;;;;2.15;100.00;95329.63;5000164;28;20335;-85
2021/12/09 08:01:07;;;;;;;2.87;1.10;;;;;;;2.20;100.00;95321.03;5009369;28;20302;-84
2021/12/09 08:03:36;;;;;;;0.73;0.73;;;;;;;2.17;100.00;95322.25;5007481;28;20237;-86
2021/12/09 08:06:03;;;;;;;4.10;0.90;;;;;;;2.20;100.00;95321.88;5005917;28;20210;-86
2021/12/09 08:08:31;;;;;;;1.40;0.90;;;;;;;2.25;100.00;95338.03;5021113;28;20288;-84
2021/12/09 08:10:58;;;;;;;1.80;1.00;;;;;;;2.28;100.00;95334.16;5019201;28;20206;-85
2021/12/09 08:13:27;;;;;;;4.70;1.10;;;;;;;2.25;100.00;95329.22;5021112;28;20207;-87
2021/12/09 08:15:54;;;;;;;1.00;0.97;;;;;;;2.41;100.00;95344.00;5007477;28;20208;-85
2021/12/09 08:18:30;;;;;;;0.90;0.80;;;;;;;2.45;100.00;95348.72;5018134;28;20227;-85
2021/12/09 08:21:04;;;;;;;1.57;1.23;;;;;;;2.47;100.00;95345.84;5006514;28;20285;-90
2021/12/09 08:23:31;;;;;;;2.67;1.10;;;;;;;2.55;100.00;95351.00;5003171;28;20226;-84
2021/12/09 08:25:58;;;;;;;1.90;1.00;;;;;;;2.59;100.00;95349.53;5001208;28;20210;-85
2021/12/09 08:28:26;;;;;;;2.27;1.27;;;;;;;2.61;100.00;95353.66;5008716;28;20230;-84
2021/12/09 08:30:54;;;;;;;3.03;1.20;;;;;;;2.67;100.00;95354.66;5016162;28;20267;-86
2021/12/09 08:33:23;;;;;;;1.37;0.93;;;;;;;2.70;100.00;95354.25;5007122;28;20214;-85
2021/12/09 08:35:51;;;;;;;1.13;0.87;;;;;;;2.71;100.00;95355.09;5005324;28;20444;-85
2021/12/09 08:38:20;;;;;;;0.70;0.70;;;;;;;2.75;100.00;95362.44;5015197;28;20211;-85
2021/12/09 08:40:49;;;;;;;1.50;0.90;;;;;;;2.73;100.00;95364.50;5002971;28;20298;-86
2021/12/09 08:43:16;;;;;;;1.10;1.00;;;;;;;2.68;100.00;95356.31;4994642;28;20250;-85
2021/12/09 08:45:44;;;;;;;1.13;0.80;;;;;;;2.76;100.00;95374.75;4999851;28;20227;-86
2021/12/09 08:48:12;;;;;;;1.17;0.70;;;;;;;2.75;100.00;95361.63;5003292;28;20321;-86
2021/12/09 08:50:42;;;;;;;2.50;0.90;;;;;;;2.80;100.00;95369.84;5018261;28;20278;-84
2021/12/09 08:53:13;;;;;;;0.80;0.80;;;;;;;2.87;100.00;95366.16;4994837;28;20215;-85
2021/12/09 08:55:41;;;;;;;1.90;0.70;;;;;;;2.89;100.00;95385.41;5000842;28;20265;-84
2021/12/09 08:58:09;;;;;;;1.10;0.97;;;;;;;2.90;100.00;95375.56;4998928;28;20230;-84
2021/12/09 09:00:37;;;;;;;0.80;0.60;;;;;;;2.84;100.00;95366.53;5004131;28;20238;-83
2021/12/09 09:03:05;;;;;;;2.33;0.90;;;;;;;2.80;100.00;95370.66;5013888;28;20206;-83
2021/12/09 09:05:33;;;;;;;2.20;1.00;;;;;;;2.81;100.00;95372.28;5016680;28;20203;-83
2021/12/09 09:08:01;;;;;;;3.00;0.90;;;;;;;2.86;100.00;95371.69;5014596;28;20250;-84
2021/12/09 09:10:31;;;;;;;2.43;0.80;;;;;;;2.85;100.00;95373.53;5001105;28;20202;-84
2021/12/09 09:13:00;;;;;;;1.80;0.87;;;;;;;2.75;100.00;95378.44;5021222;28;20210;-85
2021/12/09 09:15:28;;;;;;;1.10;0.80;;;;;;;2.80;100.00;95388.50;5007034;28;20206;-85
2021/12/09 09:17:56;;;;;;;2.00;0.80;;;;;;;2.81;100.00;95393.59;5007636;28;20261;-85
2021/12/09 09:20:26;;;;;;;1.27;0.70;;;;;;;2.85;100.00;95389.50;5007735;28;20199;-84
2021/12/09 09:22:53;;;;;;;2.03;0.93;;;;;;;2.86;100.00;95391.16;5021254;28;20215;-85
2021/12/09 09:25:28;;;;;;;1.07;0.90;;;;;;;2.94;100.00;95388.28;4999868;28;20297;-85
2021/12/09 09:27:56;;;;;;;1.00;0.80;;;;;;;3.03;100.00;95391.56;5003702;28;20227;-84
2021/12/09 09:30:27;;;;;;;1.40;1.00;;;;;;;3.09;100.00;95389.91;4999564;28;20199;-84
2021/12/09 09:32:55;;;;;;;2.10;1.00;;;;;;;3.16;100.00;95396.03;5008342;28;20235;-84
2021/12/09 09:35:22;;;;;;;1.40;0.97;;;;;;;3.27;100.00;95408.75;5011291;28;20293;-84
2021/12/09 09:37:49;;;;;;;3.10;1.00;;;;;;;3.26;100.00;95407.09;5004628;28;20295;-85
2021/12/09 09:40:27;;;;;;;1.17;0.80;;;;;;;3.32;100.00;95416.94;5020109;28;20211;-84
2021/12/09 09:43:00;;;;;;;2.20;0.80;;;;;;;3.29;100.00;95412.03;5008402;28;20206;-85
2021/12/09 09:45:29;;;;;;;1.07;0.83;;;;;;;3.27;100.00;95406.09;5008966;28;20240;-85
2021/12/09 09:47:56;;;;;;;0.93;0.80;;;;;;;3.26;100.00;95418.59;5025333;28;20287;-85
2021/12/09 09:50:25;;;;;;;1.47;0.80;;;;;;;3.26;100.00;95417.78;5007385;28;20674;-85
2021/12/09 09:52:53;;;;;;;2.03;0.97;;;;;;;3.29;100.00;95406.72;5008040;28;20203;-85
2021/12/09 09:55:22;;;;;;;2.87;1.17;;;;;;;3.34;100.00;95396.22;5023140;28;20222;-84
2021/12/09 09:57:53;;;;;;;1.47;0.80;;;;;;;3.37;100.00;95403.81;5024913;28;20219;-85
2021/12/09 10:00:22;;;;;;;1.40;0.90;;;;;;;3.49;100.00;95412.81;5011264;28;20199;-86
2021/12/09 10:02:54;;;;;;;2.00;0.93;;;;;;;3.55;100.00;95411.16;5029906;28;20298;-84
2021/12/09 10:05:36;;;;;;;1.13;1.00;;;;;;;3.61;100.00;95400.47;5009689;28;20225;-84
2021/12/09 10:08:04;;;;;;;3.83;1.00;;;;;;;3.68;100.00;95401.25;5007980;28;20280;-84
2021/12/09 10:10:31;;;;;;;1.23;0.80;;;;;;;3.75;100.00;95396.72;5011042;28;20222;-83
2021/12/09 10:13:02;;;;;;;1.60;1.30;;;;;;;3.80;100.00;95404.09;5008888;28;20203;-84
2021/12/09 10:15:35;;;;;;;2.13;1.10;;;;;;;3.76;100.00;95398.34;5012326;28;20215;-83
2021/12/09 10:18:04;;;;;;;1.00;0.90;;;;;;;3.55;100.00;95398.63;5009231;28;20200;-83
2021/12/09 10:20:59;;;;;;;2.60;0.80;;;;;;;3.49;100.00;95404.78;5010012;28;20211;-83
2021/12/09 10:23:34;;;;;;;1.73;0.90;;;;;;;3.33;100.00;95395.41;4963949;28;20203;-83
2021/12/09 10:26:29;;;;;;;3.90;1.00;;;;;;;3.35;100.00;95404.03;5026325;28;20217;-83
2021/12/09 10:29:19;;;;;;;2.00;1.17;;;;;;;3.33;100.00;95399.91;5027109;28;20219;-84
2021/12/09 10:31:51;;;;;;;0.77;0.77;;;;;;;3.32;100.00;95398.25;5011526;28;20253;-84
2021/12/09 10:34:34;;;;;;;1.00;0.80;;;;;;;3.30;100.00;95400.34;5008101;28;20199;-85
2021/12/09 10:37:05;;;;;;;1.00;0.90;;;;;;;3.26;100.00;95393.78;5009539;28;20219;-85
2021/12/09 10:39:40;;;;;;;0.90;0.80;;;;;;;3.20;100.00;95394.59;5023809;28;20199;-86
2021/12/09 10:42:11;;;;;;;1.57;0.90;;;;;;;3.20;100.00;95394.59;5012157;28;20203;-85
2021/12/09 10:44:46;;;;;;;1.53;0.90;;;;;;;3.20;100.00;95402.63;5008610;28;20284;-85
2021/12/09 10:47:22;;;;;;;2.43;1.00;;;;;;;3.17;100.00;95403.00;5003800;28;20558;-85
2021/12/09 10:50:04;;;;;;;0.83;0.83;;;;;;;3.15;100.00;95391.75;5005761;28;20241;-86
2021/12/09 10:52:40;;;;;;;1.97;1.50;;;;;;;3.13;100.00;95393.81;5004603;28;20206;-85
2021/12/09 10:55:25;;;;;;;1.37;1.00;;;;;;;3.14;100.00;95396.28;5026223;28;20245;-86
2021/12/09 10:58:01;;;;;;;2.77;1.10;;;;;;;3.19;100.00;95391.13;5008032;28;20235;-86
2021/12/09 11:00:36;;;;;;;1.03;0.90;;;;;;;3.23;100.00;95386.19;5021455;28;20211;-85
2021/12/09 11:03:16;;;;;;;1.97;1.07;;;;;;;3.32;100.00;95392.94;5012692;28;20210;-85
2021/12/09 11:05:49;;;;;;;1.50;1.03;;;;;;;3.39;100.00;95401.75;5008858;28;20199;-85
2021/12/09 11:08:23;;;;;;;0.83;0.77;;;;;;;3.45;100.00;95390.25;5003954;28;20310;-84
2021/12/09 11:10:57;;;;;;;1.70;1.17;;;;;;;3.61;100.00;95395.13;5009903;28;20215;-85
2021/12/09 11:13:25;;;;;;;1.10;0.80;;;;;;;3.63;100.00;95392.25;4996143;28;20219;-85
2021/12/09 11:15:55;;;;;;;1.53;0.70;;;;;;;3.68;100.00;95401.25;5004585;28;20208;-85
2021/12/09 11:18:35;;;;;;;1.10;0.80;;;;;;;3.77;100.00;95389.31;5011324;28;20229;-86
2021/12/09 11:21:08;;;;;;;1.13;0.90;;;;;;;3.72;100.00;95397.16;5002662;28;20204;-84
2021/12/09 11:23:43;;;;;;;2.87;0.83;;;;;;;3.74;99.77;95402.28;5007361;28;20213;-85
2021/12/09 11:26:41;;;;;;;0.67;0.67;;;;;;;3.84;96.84;95393.81;5008371;28;20257;-85
2021/12/09 11:29:11;;;;;;;1.13;0.70;;;;;;;3.92;95.56;95397.06;4996085;28;20219;-83
2021/12/09 11:31:49;;;;;;;0.73;0.70;;;;;;;3.95;94.51;95401.16;5009848;28;20238;-85
2021/12/09 11:34:19;;;;;;;1.87;1.00;;;;;;;3.94;95.04;95402.19;5006024;28;20214;-86
2021/12/09 11:36:54;;;;;;;0.83;0.70;;;;;;;3.93;94.45;95392.53;5009245;28;20199;-84
2021/12/09 11:39:29;;;;;;;0.87;0.70;;;;;;;3.92;94.72;95391.72;5009170;28;20206;-85
2021/12/09 11:42:05;;;;;;;1.00;0.70;;;;;;;3.92;96.82;95385.53;5009279;28;20289;-87
2021/12/09 11:44:33;;;;;;;0.80;0.73;;;;;;;3.91;96.19;95394.63;5009283;28;20238;-85